createdAt,value
2023-04-24T00:01:21.977Z,10.80
2023-04-24T00:03:45.784Z,10.80
2023-04-24T00:06:09.960Z,10.80
2023-04-24T00:08:35.129Z,10.70
2023-04-24T00:10:58.861Z,10.70
2023-04-24T00:13:22.465Z,10.70
2023-04-24T00:15:46.074Z,10.70
2023-04-24T00:18:09.673Z,10.60
2023-04-24T00:20:34.470Z,10.60
2023-04-24T00:22:58.246Z,10.60
2023-04-24T00:25:23.515Z,10.50
2023-04-24T00:27:47.146Z,10.50
2023-04-24T00:30:11.865Z,10.50
2023-04-24T00:32:35.540Z,10.50
2023-04-24T00:34:59.153Z,10.50
2023-04-24T00:37:22.743Z,10.40
2023-04-24T00:39:46.636Z,10.50
2023-04-24T00:42:11.912Z,10.50
2023-04-24T00:44:36.357Z,10.40
2023-04-24T00:47:01.442Z,10.40
2023-04-24T00:49:25.243Z,10.40
2023-04-24T00:51:50.329Z,10.30
2023-04-24T00:54:14.016Z,10.30
2023-04-24T00:56:37.852Z,10.30
2023-04-24T00:59:03.023Z,10.30
2023-04-24T01:01:27.019Z,10.30
2023-04-24T01:03:53.764Z,10.30
2023-04-24T01:06:18.248Z,10.30
2023-04-24T01:08:43.761Z,10.20
2023-04-24T01:11:07.626Z,10.20
2023-04-24T01:13:31.461Z,10.20
2023-04-24T01:15:56.432Z,10.20
2023-04-24T01:18:20.109Z,10.30
2023-04-24T01:20:46.138Z,10.30
2023-04-24T01:23:11.554Z,10.30
2023-04-24T01:25:35.660Z,10.30
2023-04-24T01:27:59.480Z,10.40
2023-04-24T01:30:23.104Z,10.50
2023-04-24T01:32:47.900Z,10.50
2023-04-24T01:35:11.961Z,10.60
2023-04-24T01:37:38.170Z,10.60
2023-04-24T01:40:04.654Z,10.60
2023-04-24T01:42:28.697Z,10.70
2023-04-24T01:44:52.992Z,10.70
2023-04-24T01:47:16.745Z,10.80
2023-04-24T01:49:41.681Z,10.70
2023-04-24T01:52:05.715Z,10.80
2023-04-24T01:54:29.330Z,10.80
2023-04-24T01:56:54.554Z,10.90
2023-04-24T01:59:19.874Z,11.00
2023-04-24T02:01:43.447Z,11.00
2023-04-24T02:04:08.989Z,11.10
2023-04-24T02:06:33.334Z,11.10
2023-04-24T02:08:57.963Z,11.10
2023-04-24T02:11:21.822Z,11.10
2023-04-24T02:13:46.890Z,11.10
2023-04-24T02:16:10.617Z,11.10
2023-04-24T02:18:34.206Z,11.10
2023-04-24T02:20:57.801Z,11.20
2023-04-24T02:23:21.530Z,11.10
2023-04-24T02:25:45.228Z,11.10
2023-04-24T02:28:08.825Z,11.10
2023-04-24T02:30:33.794Z,11.10
2023-04-24T02:32:57.400Z,11.10
2023-04-24T02:35:21.125Z,11.10
2023-04-24T02:37:44.690Z,11.10
2023-04-24T02:40:11.482Z,11.10
2023-04-24T02:42:35.027Z,11.10
2023-04-24T02:44:58.614Z,11.10
2023-04-24T02:47:23.600Z,11.10
2023-04-24T02:49:47.231Z,11.10
2023-04-24T02:52:11.457Z,11.10
2023-04-24T02:54:35.115Z,11.10
2023-04-24T02:56:58.935Z,11.10
2023-04-24T02:59:22.671Z,11.10
2023-04-24T03:01:46.325Z,11.10
2023-04-24T03:04:14.630Z,11.10
2023-04-24T03:06:38.254Z,11.10
2023-04-24T03:09:01.877Z,11.10
2023-04-24T03:11:25.481Z,11.10
2023-04-24T03:13:49.230Z,11.20
2023-04-24T03:16:12.859Z,11.20
2023-04-24T03:18:36.502Z,11.20
2023-04-24T03:21:04.532Z,11.20
2023-04-24T03:23:28.690Z,11.20
2023-04-24T03:25:52.497Z,11.20
2023-04-24T03:28:17.218Z,11.30
2023-04-24T03:30:45.678Z,11.30
2023-04-24T03:33:10.850Z,11.30
2023-04-24T03:35:40.811Z,11.30
2023-04-24T03:38:08.616Z,11.30
2023-04-24T03:40:41.393Z,11.40
2023-04-24T03:43:19.207Z,11.40
2023-04-24T03:45:43.567Z,11.40
2023-04-24T03:48:08.672Z,11.40
2023-04-24T03:50:32.438Z,11.50
2023-04-24T03:52:56.382Z,11.50
2023-04-24T03:55:32.695Z,11.50
2023-04-24T03:57:56.408Z,11.50
2023-04-24T04:00:20.498Z,11.60
2023-04-24T04:02:50.244Z,11.60
2023-04-24T04:05:13.944Z,11.60
2023-04-24T04:07:38.795Z,11.60
2023-04-24T04:10:02.544Z,11.60
2023-04-24T04:12:27.809Z,11.70
2023-04-24T04:14:51.427Z,11.70
2023-04-24T04:17:15.443Z,11.80
2023-04-24T04:19:39.680Z,11.80
2023-04-24T04:22:03.546Z,11.80
2023-04-24T04:24:39.020Z,11.80
2023-04-24T04:27:03.334Z,11.80
2023-04-24T04:29:33.774Z,11.80
2023-04-24T04:31:58.708Z,11.80
2023-04-24T04:34:23.622Z,11.90
2023-04-24T04:36:48.417Z,11.80
2023-04-24T04:39:29.235Z,11.80
2023-04-24T04:42:01.647Z,11.80
2023-04-24T04:44:33.768Z,11.70
2023-04-24T04:46:58.365Z,11.80
2023-04-24T04:49:29.598Z,11.80
2023-04-24T04:51:54.046Z,11.80
2023-04-24T04:54:18.675Z,11.90
2023-04-24T04:56:42.904Z,11.90
2023-04-24T04:59:07.463Z,11.90
2023-04-24T05:01:34.187Z,11.90
2023-04-24T05:03:58.033Z,12.00
2023-04-24T05:06:24.247Z,12.00
2023-04-24T05:08:49.775Z,12.10
2023-04-24T05:11:30.664Z,12.10
2023-04-24T05:13:55.485Z,12.10
2023-04-24T05:16:26.937Z,12.20
2023-04-24T05:18:53.657Z,12.20
2023-04-24T05:21:22.305Z,12.30
2023-04-24T05:26:18.827Z,12.40
2023-04-24T05:28:42.457Z,12.50
2023-04-24T05:31:09.056Z,12.50
2023-04-24T05:33:33.259Z,12.60
2023-04-24T05:36:01.252Z,12.60
2023-04-24T05:38:25.380Z,12.60
2023-04-24T05:40:48.978Z,12.70
2023-04-24T05:43:12.582Z,12.70
2023-04-24T05:45:37.087Z,12.80
2023-04-24T05:48:00.737Z,12.80
2023-04-24T05:50:24.528Z,12.90
2023-04-24T05:52:49.705Z,13.00
2023-04-24T05:55:22.909Z,13.20
2023-04-24T05:57:46.807Z,13.30
2023-04-24T06:00:13.115Z,13.50
2023-04-24T06:02:47.503Z,13.80
2023-04-24T06:05:11.601Z,14.00
2023-04-24T06:07:35.265Z,14.30
2023-04-24T06:10:03.261Z,14.60
2023-04-24T06:12:31.650Z,14.80
2023-04-24T06:15:00.137Z,15.00
2023-04-24T06:17:43.238Z,15.00
2023-04-24T06:20:09.306Z,15.10
2023-04-24T06:22:32.876Z,15.40
2023-04-24T06:24:56.470Z,15.70
2023-04-24T06:27:23.237Z,15.80
2023-04-24T06:29:46.835Z,16.50
2023-04-24T06:32:10.442Z,17.20
2023-04-24T06:34:35.197Z,17.80
2023-04-24T06:36:59.106Z,17.70
2023-04-24T06:39:22.712Z,18.20
2023-04-24T06:41:46.241Z,19.20
2023-04-24T06:44:18.438Z,19.10
2023-04-24T06:46:42.222Z,19.10
2023-04-24T06:49:05.801Z,19.50
2023-04-24T06:51:29.797Z,19.50
2023-04-24T06:53:54.790Z,19.60
2023-04-24T06:56:18.495Z,20.00
2023-04-24T06:58:42.066Z,19.80
2023-04-24T07:01:07.329Z,20.00
2023-04-24T07:03:32.366Z,20.20
2023-04-24T07:05:58.888Z,20.40
2023-04-24T07:08:23.142Z,20.30
2023-04-24T07:10:47.100Z,20.20
2023-04-24T07:13:10.762Z,19.90
2023-04-24T07:15:35.040Z,19.90
2023-04-24T07:18:00.023Z,20.20
2023-04-24T07:20:24.041Z,20.20
2023-04-24T07:22:47.568Z,20.20
2023-04-24T07:25:11.887Z,20.30
2023-04-24T07:27:36.020Z,19.90
2023-04-24T07:29:59.650Z,19.80
2023-04-24T07:32:23.228Z,20.10
2023-04-24T07:34:48.190Z,20.50
2023-04-24T07:37:11.819Z,20.70
2023-04-24T07:39:35.516Z,20.90
2023-04-24T07:42:00.128Z,21.00
2023-04-24T07:44:23.813Z,21.00
2023-04-24T07:46:47.470Z,20.70
2023-04-24T07:49:13.520Z,20.70
2023-04-24T07:51:40.193Z,20.30
2023-04-24T07:54:03.807Z,20.30
2023-04-24T07:56:28.092Z,20.00
2023-04-24T07:58:51.916Z,19.70
2023-04-24T08:01:15.438Z,19.30
2023-04-24T08:03:39.263Z,19.10
2023-04-24T08:06:02.976Z,19.40
2023-04-24T08:08:28.218Z,19.50
2023-04-24T08:10:52.096Z,19.60
2023-04-24T08:13:15.699Z,19.20
2023-04-24T08:15:39.270Z,19.10
2023-04-24T08:18:03.038Z,19.20
2023-04-24T08:20:26.824Z,19.60
2023-04-24T08:22:50.444Z,20.00
2023-04-24T08:25:15.868Z,20.20
2023-04-24T08:27:40.000Z,20.30
2023-04-24T08:30:03.669Z,20.10
2023-04-24T08:32:28.928Z,20.10
2023-04-24T08:34:53.770Z,19.40
2023-04-24T08:37:17.511Z,19.50
2023-04-24T08:39:41.156Z,19.40
2023-04-24T08:42:09.280Z,19.50
2023-04-24T08:44:34.731Z,19.50
2023-04-24T08:46:58.786Z,19.70
2023-04-24T08:49:22.902Z,19.80
2023-04-24T08:51:48.093Z,19.50
2023-04-24T08:54:11.659Z,19.80
2023-04-24T08:56:38.782Z,19.80
2023-04-24T08:59:04.011Z,19.90
2023-04-24T09:01:29.949Z,19.80
2023-04-24T09:03:55.933Z,19.60
2023-04-24T09:06:21.934Z,19.40
2023-04-24T09:08:47.926Z,19.50
2023-04-24T09:11:12.450Z,19.50
2023-04-24T09:13:36.813Z,19.60
2023-04-24T09:16:02.346Z,19.40
2023-04-24T09:18:26.178Z,19.20
2023-04-24T09:21:04.068Z,19.20
2023-04-24T09:23:30.573Z,19.30
2023-04-24T09:25:58.073Z,19.10
2023-04-24T09:28:21.720Z,19.20
2023-04-24T09:30:45.275Z,19.40
2023-04-24T09:33:17.824Z,19.40
2023-04-24T09:35:45.083Z,19.60
2023-04-24T09:38:08.960Z,19.70
2023-04-24T09:40:32.694Z,19.70
2023-04-24T09:42:58.862Z,20.10
2023-04-24T09:45:23.298Z,20.20
2023-04-24T09:47:46.937Z,19.80
2023-04-24T09:50:18.091Z,19.60
2023-04-24T09:52:44.774Z,19.40
2023-04-24T09:55:14.581Z,19.30
2023-04-24T09:57:38.177Z,19.20
2023-04-24T10:00:01.750Z,19.20
2023-04-24T10:02:35.414Z,19.20
2023-04-24T10:05:01.263Z,19.20
2023-04-24T10:07:28.542Z,19.20
2023-04-24T10:09:52.276Z,19.10
2023-04-24T10:12:17.202Z,19.00
2023-04-24T10:14:42.874Z,18.90
2023-04-24T10:17:08.697Z,18.70
2023-04-24T10:19:33.022Z,18.80
2023-04-24T10:21:58.496Z,19.00
2023-04-24T10:24:23.518Z,19.10
2023-04-24T10:26:49.340Z,19.10
2023-04-24T10:29:16.506Z,19.30
2023-04-24T10:31:41.213Z,19.20
2023-04-24T10:34:05.666Z,19.30
2023-04-24T10:36:33.319Z,19.20
2023-04-24T10:39:00.094Z,19.10
2023-04-24T10:41:28.894Z,19.20
2023-04-24T10:44:07.817Z,19.20
2023-04-24T10:46:32.919Z,18.90
2023-04-24T10:48:57.323Z,18.80
2023-04-24T10:51:24.117Z,18.70
2023-04-24T10:53:47.759Z,18.60
2023-04-24T10:56:13.286Z,18.60
2023-04-24T10:58:46.090Z,18.60
2023-04-24T11:01:10.304Z,18.60
2023-04-24T11:03:37.312Z,18.60
2023-04-24T11:06:03.821Z,18.70
2023-04-24T11:08:34.047Z,18.70
2023-04-24T11:11:05.559Z,18.80
2023-04-24T11:14:05.262Z,18.80
2023-04-24T11:16:33.788Z,18.80
2023-04-24T11:19:04.569Z,18.70
2023-04-24T11:21:29.525Z,18.60
2023-04-24T11:23:53.198Z,18.60
2023-04-24T11:26:21.807Z,18.70
2023-04-24T11:28:49.936Z,18.60
2023-04-24T11:31:39.625Z,18.70
2023-04-24T11:34:10.135Z,18.80
2023-04-24T11:36:34.670Z,19.00
2023-04-24T11:38:59.125Z,18.90
2023-04-24T11:41:23.339Z,19.00
2023-04-24T11:43:47.543Z,19.20
2023-04-24T11:46:12.015Z,19.40
2023-04-24T11:48:41.092Z,19.70
2023-04-24T11:51:04.970Z,19.90
2023-04-24T11:53:28.481Z,19.60
2023-04-24T11:55:52.117Z,19.70
2023-04-24T11:58:15.641Z,19.90
2023-04-24T12:00:39.419Z,20.10
2023-04-24T12:03:08.815Z,20.30
2023-04-24T12:05:34.362Z,20.50
2023-04-24T12:07:58.001Z,20.10
2023-04-24T12:10:23.592Z,20.00
2023-04-24T12:12:48.525Z,19.90
2023-04-24T12:15:13.534Z,20.10
2023-04-24T12:17:38.644Z,20.10
2023-04-24T12:20:05.195Z,19.80
2023-04-24T12:22:30.415Z,19.40
2023-04-24T12:25:02.889Z,19.40
2023-04-24T12:27:26.827Z,19.40
2023-04-24T12:29:55.614Z,19.40
2023-04-24T12:32:19.368Z,19.40
2023-04-24T12:34:45.893Z,19.40
2023-04-24T12:37:13.165Z,19.30
2023-04-24T12:39:38.087Z,19.00
2023-04-24T12:42:02.383Z,19.10
2023-04-24T12:44:33.211Z,19.20
2023-04-24T12:46:56.953Z,19.30
2023-04-24T12:49:20.668Z,19.20
2023-04-24T12:51:44.270Z,18.90
2023-04-24T12:54:08.339Z,18.80
2023-04-24T12:56:33.370Z,18.80
2023-04-24T12:58:56.955Z,18.80
2023-04-24T13:01:20.621Z,18.80
2023-04-24T13:03:44.934Z,19.00
2023-04-24T13:06:08.877Z,19.20
2023-04-24T13:08:32.426Z,19.30
2023-04-24T13:10:56.061Z,19.20
2023-04-24T13:13:20.976Z,19.30
2023-04-24T13:15:44.533Z,19.20
2023-04-24T13:18:08.072Z,19.10
2023-04-24T13:20:31.950Z,19.00
2023-04-24T13:22:55.782Z,19.10
2023-04-24T13:25:21.423Z,19.10
2023-04-24T13:27:44.941Z,18.90
2023-04-24T13:30:11.910Z,18.80
2023-04-24T13:32:36.459Z,19.00
2023-04-24T13:35:00.377Z,19.30
2023-04-24T13:37:24.305Z,19.50
2023-04-24T13:39:47.885Z,19.60
2023-04-24T13:42:11.826Z,19.80
2023-04-24T13:44:35.575Z,20.10
2023-04-24T13:47:01.187Z,20.30
2023-04-24T13:49:27.060Z,20.40
2023-04-24T13:51:50.765Z,20.50
2023-04-24T13:54:14.496Z,20.60
2023-04-24T13:56:38.216Z,20.50
2023-04-24T13:59:02.006Z,20.40
2023-04-24T14:01:26.064Z,20.30
2023-04-24T14:03:51.797Z,20.10
2023-04-24T14:06:15.586Z,19.90
2023-04-24T14:08:39.211Z,20.00
2023-04-24T14:11:04.489Z,20.10
2023-04-24T14:13:28.739Z,20.30
2023-04-24T14:15:53.655Z,20.00
2023-04-24T14:18:17.448Z,20.00
2023-04-24T14:20:42.426Z,19.70
2023-04-24T14:23:06.556Z,19.60
2023-04-24T14:25:30.112Z,19.50
2023-04-24T14:27:54.052Z,19.50
2023-04-24T14:30:17.953Z,19.40
2023-04-24T14:32:41.911Z,19.40
2023-04-24T14:35:06.592Z,19.30
2023-04-24T14:37:31.863Z,19.00
2023-04-24T14:40:11.032Z,18.90
2023-04-24T14:42:35.291Z,18.80
2023-04-24T14:44:58.847Z,18.70
2023-04-24T14:47:23.270Z,19.00
2023-04-24T14:49:48.354Z,19.20
2023-04-24T14:52:12.086Z,19.30
2023-04-24T14:54:37.069Z,19.00
2023-04-24T14:57:02.297Z,18.80
2023-04-24T14:59:25.957Z,18.70
2023-04-24T15:01:50.057Z,18.80
2023-04-24T15:04:14.490Z,18.80
2023-04-24T15:06:38.309Z,18.80
2023-04-24T15:09:02.035Z,18.70
2023-04-24T15:11:27.122Z,18.40
2023-04-24T15:13:50.927Z,18.10
2023-04-24T15:16:14.685Z,17.90
2023-04-24T15:18:38.297Z,18.00
2023-04-24T15:21:01.977Z,18.10
2023-04-24T15:23:25.536Z,18.00
2023-04-24T15:25:49.748Z,17.90
2023-04-24T15:28:14.819Z,17.90
2023-04-24T15:30:38.542Z,17.90
2023-04-24T15:33:02.798Z,17.80
2023-04-24T15:35:28.113Z,17.60
2023-04-24T15:37:51.741Z,17.60
2023-04-24T15:40:16.782Z,17.40
2023-04-24T15:42:41.011Z,17.20
2023-04-24T15:45:06.681Z,17.10
2023-04-24T15:47:30.663Z,17.10
2023-04-24T15:49:54.800Z,17.00
2023-04-24T15:52:18.519Z,17.00
2023-04-24T15:54:42.265Z,17.10
2023-04-24T15:57:05.877Z,17.10
2023-04-24T15:59:31.366Z,17.20
2023-04-24T16:01:56.875Z,17.20
2023-04-24T16:04:20.780Z,17.10
2023-04-24T16:06:44.418Z,17.10
2023-04-24T16:09:08.625Z,17.00
2023-04-24T16:11:32.806Z,17.00
2023-04-24T16:13:56.476Z,16.90
2023-04-24T16:16:20.076Z,16.90
2023-04-24T16:18:45.139Z,16.80
2023-04-24T16:21:09.404Z,16.90
2023-04-24T16:23:33.036Z,17.00
2023-04-24T16:25:56.582Z,16.80
2023-04-24T16:28:20.534Z,16.70
2023-04-24T16:30:44.177Z,16.70
2023-04-24T16:33:09.226Z,16.50
2023-04-24T16:35:34.307Z,16.40
2023-04-24T16:37:57.940Z,16.20
2023-04-24T16:40:22.066Z,15.90
2023-04-24T16:42:45.670Z,15.90
2023-04-24T16:45:11.003Z,15.80
2023-04-24T16:47:34.784Z,15.50
2023-04-24T16:49:58.484Z,15.40
2023-04-24T16:52:23.505Z,15.30
2023-04-24T16:54:47.029Z,15.10
2023-04-24T16:57:10.795Z,15.10
2023-04-24T16:59:35.118Z,15.00
2023-04-24T17:01:58.775Z,14.90
2023-04-24T17:04:22.469Z,14.80
2023-04-24T17:06:46.182Z,14.70
2023-04-24T17:09:13.045Z,14.80
2023-04-24T17:11:37.164Z,14.70
2023-04-24T17:14:00.820Z,14.70
2023-04-24T17:16:24.814Z,14.70
2023-04-24T17:18:48.611Z,14.60
2023-04-24T17:21:12.520Z,14.40
2023-04-24T17:23:37.416Z,14.40
2023-04-24T17:26:03.883Z,14.40
2023-04-24T17:28:29.615Z,14.40
2023-04-24T17:30:55.521Z,14.30
2023-04-24T17:33:19.118Z,14.10
2023-04-24T17:35:42.814Z,13.90
2023-04-24T17:38:06.372Z,13.80
2023-04-24T17:40:30.162Z,13.60
2023-04-24T17:42:55.065Z,13.50
2023-04-24T17:45:18.692Z,13.50
2023-04-24T17:47:42.434Z,13.40
2023-04-24T17:50:07.246Z,13.40
2023-04-24T17:52:30.999Z,13.30
2023-04-24T17:54:54.648Z,13.20
2023-04-24T17:57:18.220Z,13.20
2023-04-24T17:59:43.345Z,13.20
2023-04-24T18:02:06.964Z,13.20
2023-04-24T18:04:30.707Z,13.10
2023-04-24T18:06:54.339Z,13.10
2023-04-24T18:09:20.753Z,13.10
2023-04-24T18:11:44.422Z,12.90
2023-04-24T18:14:08.125Z,12.90
2023-04-24T18:16:33.065Z,12.80
2023-04-24T18:18:56.758Z,12.70
2023-04-24T18:21:20.757Z,12.70
2023-04-24T18:23:44.804Z,12.60
2023-04-24T18:26:08.420Z,12.50
2023-04-24T18:28:34.711Z,12.40
2023-04-24T18:30:58.489Z,12.30
2023-04-24T18:33:23.518Z,12.20
2023-04-24T18:35:47.071Z,12.20
2023-04-24T18:38:10.679Z,12.20
2023-04-24T18:40:34.205Z,12.00
2023-04-24T18:42:58.242Z,11.90
2023-04-24T18:45:21.972Z,11.90
2023-04-24T18:47:45.760Z,11.80
2023-04-24T18:50:12.363Z,11.70
2023-04-24T18:52:36.100Z,11.70
2023-04-24T18:55:00.288Z,11.60
2023-04-24T18:57:23.923Z,11.50
2023-04-24T18:59:47.541Z,11.40
2023-04-24T19:02:11.416Z,11.40
2023-04-24T19:04:35.157Z,11.30
2023-04-24T19:07:00.177Z,11.20
2023-04-24T19:09:23.775Z,11.20
2023-04-24T19:11:47.706Z,11.10
2023-04-24T19:14:11.317Z,11.00
2023-04-24T19:16:35.032Z,10.90
2023-04-24T19:18:58.598Z,10.90
2023-04-24T19:21:22.980Z,10.90
2023-04-24T19:23:50.418Z,10.90
2023-04-24T19:26:14.521Z,10.80
2023-04-24T19:28:39.203Z,10.90
2023-04-24T19:31:03.521Z,10.90
2023-04-24T19:33:27.075Z,10.90
2023-04-24T19:35:50.769Z,10.90
2023-04-24T19:38:14.350Z,10.90
2023-04-24T19:40:39.455Z,10.90
2023-04-24T19:43:03.007Z,10.80
2023-04-24T19:45:26.630Z,10.70
2023-04-24T19:47:50.360Z,10.70
2023-04-24T19:50:15.004Z,10.70
2023-04-24T19:52:38.722Z,10.60
2023-04-24T19:55:02.539Z,10.70
2023-04-24T19:57:27.465Z,10.60
2023-04-24T19:59:51.090Z,10.60
2023-04-24T20:02:14.824Z,10.70
2023-04-24T20:04:38.850Z,10.70
2023-04-24T20:07:02.610Z,10.70
2023-04-24T20:09:26.243Z,10.60
2023-04-24T20:11:51.299Z,10.60
2023-04-24T20:14:16.419Z,10.50
2023-04-24T20:16:40.580Z,10.40
2023-04-24T20:19:04.256Z,10.40
2023-04-24T20:21:27.970Z,10.30
2023-04-24T20:23:52.947Z,10.20
2023-04-24T20:26:16.540Z,10.20
2023-04-24T20:28:40.189Z,10.20
2023-04-24T20:31:05.515Z,10.10
2023-04-24T20:33:30.467Z,10.10
2023-04-24T20:35:54.012Z,10.10
2023-04-24T20:38:18.617Z,10.00
2023-04-24T20:40:56.128Z,10.10
2023-04-24T20:43:23.028Z,10.10
2023-04-24T20:45:46.966Z,10.10
2023-04-24T20:48:12.862Z,10.20
2023-04-24T20:50:41.311Z,10.10
2023-04-24T20:53:05.866Z,10.10
2023-04-24T20:55:29.476Z,10.20
2023-04-24T20:57:53.649Z,10.20
2023-04-24T21:00:17.922Z,10.10
2023-04-24T21:02:41.600Z,10.10
2023-04-24T21:05:08.063Z,10.10
2023-04-24T21:07:31.862Z,10.20
2023-04-24T21:09:55.499Z,10.20
2023-04-24T21:12:19.232Z,10.10
2023-04-24T21:14:42.884Z,10.10
2023-04-24T21:17:06.562Z,10.10
2023-04-24T21:19:30.145Z,10.10
2023-04-24T21:21:55.133Z,10.10
2023-04-24T21:24:18.628Z,10.10
2023-04-24T21:26:42.349Z,10.10
2023-04-24T21:29:05.993Z,10.00
2023-04-24T21:31:29.678Z,10.00
2023-04-24T21:33:53.191Z,10.00
2023-04-24T21:36:16.905Z,10.00
2023-04-24T21:38:41.883Z,10.00
2023-04-24T21:41:05.593Z,9.90
2023-04-24T21:43:43.497Z,9.90
2023-04-24T21:46:08.564Z,9.90
2023-04-24T21:48:32.144Z,9.90
2023-04-24T21:50:55.825Z,9.90
2023-04-24T21:53:19.339Z,9.90
2023-04-24T21:55:44.380Z,9.90
2023-04-24T21:58:07.924Z,10.00
2023-04-24T22:00:31.602Z,10.00
2023-04-24T22:02:55.230Z,10.00
2023-04-24T22:05:20.341Z,10.00
2023-04-24T22:07:47.135Z,10.00
2023-04-24T22:10:13.932Z,10.00
2023-04-24T22:12:39.259Z,9.90
2023-04-24T22:15:04.144Z,10.00
2023-04-24T22:17:28.003Z,9.90
2023-04-24T22:19:51.716Z,10.00
2023-04-24T22:22:15.382Z,10.00
2023-04-24T22:24:39.069Z,10.10
2023-04-24T22:27:03.000Z,10.10
2023-04-24T22:29:28.067Z,10.10
2023-04-24T22:31:51.782Z,10.10
2023-04-24T22:34:17.074Z,10.10
2023-04-24T22:36:40.867Z,10.10
2023-04-24T22:39:05.454Z,10.00
2023-04-24T22:41:28.994Z,9.90
2023-04-24T22:43:52.734Z,9.90
2023-04-24T22:46:18.409Z,9.90
2023-04-24T22:48:42.042Z,9.80
2023-04-24T22:51:06.613Z,9.80
2023-04-24T22:53:30.316Z,9.80
2023-04-24T22:55:53.905Z,9.80
2023-04-24T22:58:17.593Z,9.80
2023-04-24T23:00:41.200Z,9.80
2023-04-24T23:03:06.833Z,9.80
2023-04-24T23:05:31.128Z,9.70
2023-04-24T23:07:54.928Z,9.70
2023-04-24T23:10:18.585Z,9.70
2023-04-24T23:12:42.215Z,9.70
2023-04-24T23:15:07.227Z,9.70
2023-04-24T23:17:30.857Z,9.70
2023-04-24T23:19:55.923Z,9.70
2023-04-24T23:22:19.653Z,9.80
2023-04-24T23:24:43.239Z,9.80
2023-04-24T23:27:06.983Z,9.70
2023-04-24T23:29:30.629Z,9.80
2023-04-24T23:31:54.660Z,9.80
2023-04-24T23:34:20.118Z,9.80
2023-04-24T23:36:45.170Z,9.80
2023-04-24T23:39:08.764Z,9.80
2023-04-24T23:41:32.927Z,9.80
2023-04-24T23:43:56.455Z,9.70
2023-04-24T23:46:20.193Z,9.70
2023-04-24T23:48:43.760Z,9.70
2023-04-24T23:51:07.690Z,9.60
2023-04-24T23:53:32.611Z,9.60
2023-04-24T23:55:56.426Z,9.60
2023-04-24T23:58:19.970Z,9.60
